Back to Top

Language: 

My Weather Underground Personal Weather Station Historical Data with Graphs...

Delerius Weather Station Historical Data
Daily Summary for December 4, 2017 Units:  Metric    English   Both
« Previous Day
Next Day »
Daily Weekly Monthly Yearly Custom
  High: Low: Average:
Temperature: 10.4 °C 2.9 °C 7.1 °C
Dew Point: 7.6 °C 1.6 °C 5.3 °C
Humidity: 93 % 82 % 89 %
Wind Speed: 17.7 km/h 0 km/h 10.5 km/h
Wind Gust: 29 km/h - -
Wind:- - WNW
Pressure: 1033.4 hPa 1029.3 hPa -
Precipitation: 0 mm    
Historical Graphs
 
 
Tabular Data for December 4, 2017
Time Temperature Dew Point Pressure Wind Wind Speed Wind Gust Humidity Rainfall Rate (Hourly) solar Conditions
00:00 4.2 °C 2.9 °C 1029.7 hPa WNW 9.7 km/h 11.3 km/h 91 % 0 mm 0 W/m2
00:05 4.1 °C 2.8 °C 1029.3 hPa WNW 8 km/h 9.7 km/h 91 % 0 mm 0 W/m2
00:10 4.1 °C 2.8 °C 1029.3 hPa WNW 9.7 km/h 11.3 km/h 91 % 0 mm 0 W/m2
00:15 4 °C 2.7 °C 1029.7 hPa WNW 9.7 km/h 12.9 km/h 91 % 0 mm 0 W/m2
00:20 3.9 °C 2.6 °C 1029.7 hPa West 8 km/h 11.3 km/h 91 % 0 mm 0 W/m2
00:21 3.9 °C 2.6 °C 1029.7 hPa West 9.7 km/h 11.3 km/h 91 % 0 mm 0 W/m2
00:26 3.9 °C 2.6 °C 1029.7 hPa WNW 6.4 km/h 9.7 km/h 91 % 0 mm 0 W/m2
00:31 3.8 °C 2.4 °C 1029.7 hPa WNW 8 km/h 9.7 km/h 91 % 0 mm 0 W/m2
00:36 3.7 °C 2.4 °C 1029.3 hPa WNW 8 km/h 9.7 km/h 91 % 0 mm 0 W/m2
00:41 3.7 °C 2.5 °C 1029.3 hPa WNW 9.7 km/h 14.5 km/h 92 % 0 mm 0 W/m2
00:42 3.7 °C 2.5 °C 1029.3 hPa WNW 9.7 km/h 16.1 km/h 92 % 0 mm 0 W/m2
00:47 3.8 °C 2.6 °C 1029.3 hPa WNW 9.7 km/h 14.5 km/h 92 % 0 mm 0 W/m2
00:52 3.9 °C 2.9 °C 1029.3 hPa WNW 14.5 km/h 24.1 km/h 93 % 0 mm 0 W/m2
00:57 4.1 °C 3.1 °C 1029.3 hPa WNW 11.3 km/h 16.1 km/h 93 % 0 mm 0 W/m2
01:02 4.2 °C 3.2 °C 1029.3 hPa WNW 9.7 km/h 14.5 km/h 93 % 0 mm 0 W/m2
01:07 4.3 °C 3.1 °C 1029.3 hPa WNW 9.7 km/h 14.5 km/h 92 % 0 mm 0 W/m2
01:12 4.3 °C 3.1 °C 1029.7 hPa WNW 9.7 km/h 14.5 km/h 92 % 0 mm 0 W/m2
01:17 4.3 °C 3.1 °C 1029.7 hPa WNW 9.7 km/h 12.9 km/h 92 % 0 mm 0 W/m2
01:22 4.3 °C 3.1 °C 1029.7 hPa WNW 9.7 km/h 19.3 km/h 92 % 0 mm 0 W/m2
01:27 4.3 °C 3.1 °C 1029.7 hPa WNW 11.3 km/h 14.5 km/h 92 % 0 mm 0 W/m2
01:32 4.3 °C 3.1 °C 1029.7 hPa WNW 8 km/h 14.5 km/h 92 % 0 mm 0 W/m2
01:37 4.2 °C 3 °C 1029.7 hPa WNW 9.7 km/h 14.5 km/h 92 % 0 mm 0 W/m2
01:42 4.2 °C 3 °C 1029.7 hPa WNW 8 km/h 14.5 km/h 92 % 0 mm 0 W/m2
01:47 4.2 °C 3 °C 1029.7 hPa WNW 11.3 km/h 14.5 km/h 92 % 0 mm 0 W/m2
01:52 4.2 °C 3 °C 1029.7 hPa WNW 9.7 km/h 14.5 km/h 92 % 0 mm 0 W/m2
01:57 4.2 °C 3 °C 1029.7 hPa WNW 9.7 km/h 14.5 km/h 92 % 0 mm 0 W/m2
02:02 4.1 °C 2.8 °C 1029.7 hPa WNW 11.3 km/h 16.1 km/h 91 % 0 mm 0 W/m2
02:07 4.1 °C 2.8 °C 1029.7 hPa WNW 9.7 km/h 16.1 km/h 91 % 0 mm 0 W/m2
02:12 4.1 °C 2.8 °C 1029.7 hPa WNW 11.3 km/h 19.3 km/h 91 % 0 mm 0 W/m2
02:17 4.1 °C 2.8 °C 1029.7 hPa WNW 6.4 km/h 9.7 km/h 91 % 0 mm 0 W/m2
02:22 4 °C 2.7 °C 1029.7 hPa WNW 3.2 km/h 8 km/h 91 % 0 mm 0 W/m2
02:27 3.9 °C 2.6 °C 1029.7 hPa WNW 1.6 km/h 6.4 km/h 91 % 0 mm 0 W/m2
02:32 3.8 °C 2.4 °C 1029.7 hPa WNW 8 km/h 14.5 km/h 91 % 0 mm 0 W/m2
02:37 3.7 °C 2.4 °C 1029.7 hPa WNW 1.6 km/h 8 km/h 91 % 0 mm 0 W/m2
02:42 3.6 °C 2.3 °C 1029.7 hPa WNW 3.2 km/h 9.7 km/h 91 % 0 mm 0 W/m2
02:47 3.5 °C 2.2 °C 1029.7 hPa WNW 8 km/h 9.7 km/h 91 % 0 mm 0 W/m2
02:53 3.4 °C 2.1 °C 1029.7 hPa West 3.2 km/h 8 km/h 91 % 0 mm 0 W/m2
02:58 3.3 °C 1.9 °C 1029.7 hPa West 3.2 km/h 8 km/h 91 % 0 mm 0 W/m2
03:03 3.2 °C 1.9 °C 1029.7 hPa West 3.2 km/h 9.7 km/h 91 % 0 mm 0 W/m2
03:08 3.1 °C 1.8 °C 1029.3 hPa West 4.8 km/h 8 km/h 91 % 0 mm 0 W/m2
03:13 3.1 °C 1.8 °C 1029.3 hPa WNW 6.4 km/h 9.7 km/h 91 % 0 mm 0 W/m2
03:18 3.1 °C 1.8 °C 1029.7 hPa Calm   6.4 km/h 91 % 0 mm 0 W/m2
03:20 3 °C 1.7 °C 1029.3 hPa West 1.6 km/h 4.8 km/h 91 % 0 mm 0 W/m2
03:24 2.9 °C 1.6 °C 1029.3 hPa West 3.2 km/h 9.7 km/h 91 % 0 mm 0 W/m2
03:25 2.9 °C 1.6 °C 1029.3 hPa West 6.4 km/h 14.5 km/h 91 % 0 mm 0 W/m2
03:30 3.1 °C 1.9 °C 1029.3 hPa WNW 11.3 km/h 17.7 km/h 92 % 0 mm 0 W/m2
03:31 3.1 °C 1.9 °C 1029.3 hPa WNW 11.3 km/h 17.7 km/h 92 % 0 mm 0 W/m2
03:36 3.4 °C 2.4 °C 1029.3 hPa WNW 12.9 km/h 20.9 km/h 93 % 0 mm 0 W/m2
03:40 3.7 °C 2.7 °C 1029.3 hPa WNW 12.9 km/h 17.7 km/h 93 % 0 mm 0 W/m2
03:45 3.9 °C 2.9 °C 1029.3 hPa WNW 12.9 km/h 19.3 km/h 93 % 0 mm 0 W/m2
03:50 4.1 °C 2.9 °C 1029.7 hPa WNW 12.9 km/h 16.1 km/h 92 % 0 mm 0 W/m2
03:55 4.3 °C 2.9 °C 1029.7 hPa NW 11.3 km/h 14.5 km/h 91 % 0 mm 0 W/m2
04:00 4.3 °C 2.8 °C 1029.7 hPa WNW 8 km/h 12.9 km/h 90 % 0 mm 0 W/m2
04:05 4.3 °C 2.8 °C 1029.7 hPa NW 9.7 km/h 14.5 km/h 90 % 0 mm 0 W/m2
04:10 4.3 °C 2.8 °C 1029.7 hPa WNW 11.3 km/h 16.1 km/h 90 % 0 mm 0 W/m2
04:15 4.3 °C 2.8 °C 1029.7 hPa WNW 9.7 km/h 16.1 km/h 90 % 0 mm 0 W/m2
04:20 4.4 °C 2.9 °C 1029.7 hPa NW 8 km/h 12.9 km/h 90 % 0 mm 0 W/m2
04:25 4.4 °C 2.7 °C 1029.7 hPa WNW 8 km/h 12.9 km/h 89 % 0 mm 0 W/m2
04:30 4.4 °C 2.7 °C 1029.7 hPa WNW 8 km/h 11.3 km/h 89 % 0 mm 0 W/m2
04:35 4.3 °C 2.7 °C 1029.7 hPa Calm   1.6 km/h 89 % 0 mm 0 W/m2
04:40 4.2 °C 2.4 °C 1029.7 hPa WNW 4.8 km/h 8 km/h 88 % 0 mm 0 W/m2
04:45 4.1 °C 2.4 °C 1029.7 hPa WNW 6.4 km/h 11.3 km/h 89 % 0 mm 0 W/m2
04:50 4.2 °C 2.7 °C 1029.7 hPa WNW 3.2 km/h 11.3 km/h 90 % 0 mm 0 W/m2
04:55 4.1 °C 2.4 °C 1029.7 hPa WNW 3.2 km/h 4.8 km/h 89 % 0 mm 0 W/m2
05:00 4 °C 2.3 °C 1029.7 hPa WNW 3.2 km/h 6.4 km/h 89 % 0 mm 0 W/m2
05:05 3.8 °C 2.2 °C 1029.7 hPa WNW 4.8 km/h 8 km/h 89 % 0 mm 0 W/m2
05:10 3.8 °C 2.2 °C 1029.7 hPa WNW 1.6 km/h 8 km/h 89 % 0 mm 0 W/m2
05:15 3.7 °C 2.2 °C 1029.7 hPa WNW 3.2 km/h 8 km/h 90 % 0 mm 0 W/m2
05:20 3.6 °C 2.1 °C 1029.7 hPa WNW 1.6 km/h 6.4 km/h 90 % 0 mm 0 W/m2
05:25 3.6 °C 2.1 °C 1029.7 hPa WNW 3.2 km/h 8 km/h 90 % 0 mm 0 W/m2
05:30 3.6 °C 2.3 °C 1029.7 hPa WNW 6.4 km/h 11.3 km/h 91 % 0 mm 0 W/m2
05:35 3.8 °C 2.6 °C 1029.7 hPa WNW 8 km/h 12.9 km/h 92 % 0 mm 0 W/m2
05:40 4.1 °C 3.1 °C 1029.7 hPa WNW 9.7 km/h 16.1 km/h 93 % 0 mm 0 W/m2
05:45 4.6 °C 3.6 °C 1029.7 hPa WNW 9.7 km/h 17.7 km/h 93 % 0 mm 0 W/m2
05:50 4.8 °C 3.8 °C 1030 hPa WNW 11.3 km/h 19.3 km/h 93 % 0 mm 0 W/m2
05:55 5.1 °C 4.1 °C 1030 hPa WNW 11.3 km/h 17.7 km/h 93 % 0 mm 0 W/m2
06:00 5.3 °C 4.3 °C 1030 hPa WNW 12.9 km/h 19.3 km/h 93 % 0 mm 0 W/m2
06:05 5.4 °C 4.3 °C 1030 hPa NW 11.3 km/h 16.1 km/h 93 % 0 mm 0 W/m2
06:10 5.6 °C 4.4 °C 1030 hPa NW 11.3 km/h 19.3 km/h 92 % 0 mm 0 W/m2
06:15 5.7 °C 4.5 °C 1030 hPa WNW 8 km/h 14.5 km/h 92 % 0 mm 0 W/m2
06:20 5.7 °C 4.5 °C 1030 hPa WNW 9.7 km/h 12.9 km/h 92 % 0 mm 0 W/m2
06:25 5.6 °C 4.4 °C 1030.4 hPa WNW 9.7 km/h 12.9 km/h 92 % 0 mm 0 W/m2
06:30 5.6 °C 4.2 °C 1030.4 hPa WNW 9.7 km/h 11.3 km/h 91 % 0 mm 0 W/m2
06:35 5.6 °C 4.4 °C 1030.4 hPa WNW 9.7 km/h 12.9 km/h 92 % 0 mm 0 W/m2
06:40 5.6 °C 4.4 °C 1030.4 hPa WNW 8 km/h 9.7 km/h 92 % 0 mm 0 W/m2
06:45 5.6 °C 4.4 °C 1030.4 hPa WNW 8 km/h 11.3 km/h 92 % 0 mm 0 W/m2
06:50 5.6 °C 4.4 °C 1030.4 hPa WNW 9.7 km/h 14.5 km/h 92 % 0 mm 0 W/m2
06:55 5.7 °C 4.7 °C 1030.4 hPa WNW 11.3 km/h 16.1 km/h 93 % 0 mm 0 W/m2
07:00 5.9 °C 4.8 °C 1030.4 hPa WNW 12.9 km/h 17.7 km/h 93 % 0 mm 0 W/m2
07:05 6.1 °C 5.1 °C 1030.4 hPa WNW 12.9 km/h 19.3 km/h 93 % 0 mm 0 W/m2
07:11 6.1 °C 4.9 °C 1030.4 hPa WNW 12.9 km/h 17.7 km/h 92 % 0 mm 0 W/m2
07:16 6.2 °C 5 °C 1030.4 hPa WNW 12.9 km/h 19.3 km/h 92 % 0 mm 0 W/m2
07:21 6.2 °C 5 °C 1030.7 hPa WNW 12.9 km/h 20.9 km/h 92 % 0 mm 0 W/m2
07:26 6.3 °C 5.1 °C 1030.7 hPa WNW 11.3 km/h 17.7 km/h 92 % 0 mm 0 W/m2
07:31 6.3 °C 5.1 °C 1030.7 hPa WNW 14.5 km/h 19.3 km/h 92 % 0 mm 0 W/m2
07:36 6.4 °C 5.2 °C 1030.7 hPa WNW 12.9 km/h 17.7 km/h 92 % 0 mm 0 W/m2
07:41 6.5 °C 5.3 °C 1030.7 hPa WNW 14.5 km/h 20.9 km/h 92 % 0 mm 0 W/m2
07:46 6.6 °C 5.4 °C 1030.7 hPa WNW 12.9 km/h 20.9 km/h 92 % 0 mm 0 W/m2
07:51 6.7 °C 5.5 °C 1031 hPa WNW 14.5 km/h 24.1 km/h 92 % 0 mm 0 W/m2
07:56 6.8 °C 5.6 °C 1031 hPa WNW 16.1 km/h 19.3 km/h 92 % 0 mm 0 W/m2
08:01 6.8 °C 5.6 °C 1031 hPa WNW 14.5 km/h 20.9 km/h 92 % 0 mm 5 W/m2
08:06 6.9 °C 5.7 °C 1031 hPa WNW 14.5 km/h 20.9 km/h 92 % 0 mm 7 W/m2
08:11 7 °C 5.8 °C 1031 hPa WNW 16.1 km/h 24.1 km/h 92 % 0 mm 9 W/m2
08:16 7.1 °C 5.9 °C 1031.4 hPa WNW 12.9 km/h 19.3 km/h 92 % 0 mm 11 W/m2
08:21 7.1 °C 5.9 °C 1031.4 hPa WNW 14.5 km/h 17.7 km/h 92 % 0 mm 12 W/m2
08:26 7.1 °C 5.9 °C 1031.4 hPa WNW 12.9 km/h 20.9 km/h 92 % 0 mm 14 W/m2
08:31 7.1 °C 5.9 °C 1031.4 hPa WNW 14.5 km/h 25.7 km/h 92 % 0 mm 16 W/m2
08:36 7.1 °C 5.9 °C 1031.4 hPa WNW 14.5 km/h 20.9 km/h 92 % 0 mm 21 W/m2
08:41 7.1 °C 5.9 °C 1031.4 hPa WNW 12.9 km/h 19.3 km/h 92 % 0 mm 19 W/m2
08:46 7.1 °C 5.9 °C 1031.4 hPa WNW 14.5 km/h 20.9 km/h 92 % 0 mm 21 W/m2
08:51 7.1 °C 6.1 °C 1031.4 hPa WNW 12.9 km/h 20.9 km/h 93 % 0 mm 25 W/m2
08:56 7.1 °C 6.1 °C 1031.4 hPa WNW 17.7 km/h 25.7 km/h 93 % 0 mm 26 W/m2
09:01 7.2 °C 6.2 °C 1031.4 hPa WNW 16.1 km/h 22.5 km/h 93 % 0 mm 25 W/m2
09:06 7.2 °C 6.2 °C 1031.4 hPa WNW 16.1 km/h 24.1 km/h 93 % 0 mm 25 W/m2
09:11 7.3 °C 6.2 °C 1031.4 hPa WNW 14.5 km/h 22.5 km/h 93 % 0 mm 25 W/m2
09:16 7.3 °C 6.2 °C 1031.4 hPa WNW 16.1 km/h 25.7 km/h 93 % 0 mm 25 W/m2
09:21 7.3 °C 6.2 °C 1031.4 hPa WNW 14.5 km/h 24.1 km/h 93 % 0 mm 26 W/m2
09:26 7.4 °C 6.3 °C 1031.7 hPa WNW 14.5 km/h 22.5 km/h 93 % 0 mm 135 W/m2
09:36 7.7 °C 6.7 °C 1031.7 hPa WNW 16.1 km/h 22.5 km/h 93 % 0 mm 162 W/m2
09:41 7.9 °C 6.8 °C 1031.7 hPa WNW 14.5 km/h 20.9 km/h 93 % 0 mm 107 W/m2
09:46 7.9 °C 6.7 °C 1031.7 hPa WNW 12.9 km/h 19.3 km/h 92 % 0 mm 95 W/m2
09:51 8.1 °C 6.9 °C 1032.1 hPa West 14.5 km/h 24.1 km/h 92 % 0 mm 179 W/m2
09:56 8.3 °C 6.9 °C 1032.1 hPa WNW 14.5 km/h 19.3 km/h 91 % 0 mm 185 W/m2
10:01 8.4 °C 7 °C 1032.1 hPa West 16.1 km/h 22.5 km/h 91 % 0 mm 174 W/m2
10:06 8.6 °C 7.1 °C 1032.1 hPa West 14.5 km/h 24.1 km/h 90 % 0 mm 185 W/m2
10:11 8.7 °C 7.2 °C 1032.1 hPa West 14.5 km/h 24.1 km/h 90 % 0 mm 220 W/m2
10:16 8.9 °C 7.3 °C 1032.1 hPa West 16.1 km/h 20.9 km/h 90 % 0 mm 248 W/m2
10:21 9.1 °C 7.4 °C 1032.1 hPa West 14.5 km/h 20.9 km/h 89 % 0 mm 211 W/m2
10:26 9.2 °C 7.5 °C 1032.1 hPa West 12.9 km/h 22.5 km/h 89 % 0 mm 220 W/m2
10:31 9.2 °C 7.3 °C 1032.1 hPa West 14.5 km/h 20.9 km/h 88 % 0 mm 209 W/m2
10:35 9.2 °C 7.3 °C 1032.4 hPa West 12.9 km/h 17.7 km/h 88 % 0 mm 244 W/m2
10:40 9.3 °C 7.4 °C 1032.4 hPa West 14.5 km/h 20.9 km/h 88 % 0 mm 127 W/m2
10:46 9.3 °C 7.2 °C 1032.4 hPa WNW 12.9 km/h 19.3 km/h 87 % 0 mm 93 W/m2
10:51 9.2 °C 7.3 °C 1032.4 hPa WNW 14.5 km/h 19.3 km/h 88 % 0 mm 120 W/m2
10:56 9.2 °C 7.3 °C 1032.4 hPa WNW 17.7 km/h 29 km/h 88 % 0 mm 58 W/m2
11:01 9.1 °C 7.1 °C 1032.4 hPa WNW 14.5 km/h 20.9 km/h 87 % 0 mm 35 W/m2
11:06 9.1 °C 7.2 °C 1032.4 hPa WNW 12.9 km/h 17.7 km/h 88 % 0 mm 199 W/m2
11:11 9.2 °C 7.3 °C 1032.4 hPa WNW 11.3 km/h 16.1 km/h 88 % 0 mm 69 W/m2
11:16 9.1 °C 7.1 °C 1032.4 hPa WNW 11.3 km/h 16.1 km/h 87 % 0 mm 47 W/m2
11:21 8.9 °C 7 °C 1032.4 hPa West 9.7 km/h 17.7 km/h 88 % 0 mm 51 W/m2
11:26 8.9 °C 7 °C 1032.4 hPa WNW 12.9 km/h 17.7 km/h 88 % 0 mm 90 W/m2
11:31 8.9 °C 7.2 °C 1032.4 hPa WNW 12.9 km/h 17.7 km/h 89 % 0 mm 359 W/m2
11:36 9.2 °C 7.5 °C 1032.4 hPa West 9.7 km/h 14.5 km/h 89 % 0 mm 158 W/m2
11:41 9.4 °C 7.5 °C 1032.4 hPa WNW 8 km/h 14.5 km/h 88 % 0 mm 114 W/m2
11:46 9.4 °C 7.5 °C 1032.4 hPa WNW 11.3 km/h 17.7 km/h 88 % 0 mm 116 W/m2
11:51 9.3 °C 7.2 °C 1032.4 hPa WNW 12.9 km/h 22.5 km/h 87 % 0 mm 77 W/m2
11:56 9.3 °C 7.1 °C 1032.4 hPa WNW 14.5 km/h 19.3 km/h 86 % 0 mm 67 W/m2
12:01 9.2 °C 7 °C 1032.4 hPa West 14.5 km/h 24.1 km/h 86 % 0 mm 72 W/m2
12:06 9.2 °C 7 °C 1032.4 hPa WNW 16.1 km/h 24.1 km/h 86 % 0 mm 44 W/m2
12:11 9.1 °C 7.1 °C 1032.4 hPa WNW 14.5 km/h 20.9 km/h 87 % 0 mm 86 W/m2
12:16 9.1 °C 7.2 °C 1032.1 hPa West 12.9 km/h 17.7 km/h 88 % 0 mm 269 W/m2
12:21 9.2 °C 7.3 °C 1032.1 hPa West 12.9 km/h 20.9 km/h 88 % 0 mm 251 W/m2
12:26 9.4 °C 7.5 °C 1032.1 hPa WNW 12.9 km/h 17.7 km/h 88 % 0 mm 267 W/m2
12:31 9.7 °C 7.4 °C 1032.1 hPa WNW 14.5 km/h 24.1 km/h 86 % 0 mm 315 W/m2
12:36 9.9 °C 7.5 °C 1032.1 hPa WNW 16.1 km/h 29 km/h 85 % 0 mm 301 W/m2
12:41 10.1 °C 7.5 °C 1032.1 hPa WNW 16.1 km/h 24.1 km/h 84 % 0 mm 144 W/m2
12:46 10.1 °C 7.3 °C 1032.1 hPa WNW 17.7 km/h 22.5 km/h 83 % 0 mm 95 W/m2
12:51 9.9 °C 7.2 °C 1032.1 hPa WNW 17.7 km/h 29 km/h 83 % 0 mm 116 W/m2
12:56 9.8 °C 7.2 °C 1032.1 hPa WNW 11.3 km/h 16.1 km/h 84 % 0 mm 111 W/m2
13:06 9.7 °C 7.3 °C 1032.1 hPa WNW 12.9 km/h 22.5 km/h 85 % 0 mm 271 W/m2
13:11 9.9 °C 7.5 °C 1032.1 hPa WNW 14.5 km/h 22.5 km/h 85 % 0 mm 355 W/m2
13:16 10.2 °C 7.6 °C 1032.1 hPa WNW 16.1 km/h 24.1 km/h 84 % 0 mm 151 W/m2
13:21 10.4 °C 7.6 °C 1032.1 hPa WNW 14.5 km/h 22.5 km/h 83 % 0 mm 83 W/m2
13:26 10.3 °C 7.3 °C 1032.1 hPa WNW 17.7 km/h 24.1 km/h 82 % 0 mm 221 W/m2
13:31 10.3 °C 7.3 °C 1032.1 hPa WNW 16.1 km/h 24.1 km/h 82 % 0 mm 62 W/m2
13:36 10.1 °C 7.2 °C 1032.1 hPa WNW 14.5 km/h 22.5 km/h 82 % 0 mm 33 W/m2
13:41 9.8 °C 6.9 °C 1032.1 hPa WNW 14.5 km/h 22.5 km/h 82 % 0 mm 42 W/m2
13:46 9.6 °C 6.8 °C 1031.7 hPa WNW 11.3 km/h 20.9 km/h 83 % 0 mm 49 W/m2
13:51 9.4 °C 6.7 °C 1031.7 hPa WNW 12.9 km/h 24.1 km/h 83 % 0 mm 127 W/m2
13:56 9.4 °C 6.8 °C 1031.7 hPa WNW 12.9 km/h 19.3 km/h 84 % 0 mm 125 W/m2
14:01 9.6 °C 7 °C 1031.7 hPa WNW 11.3 km/h 17.7 km/h 84 % 0 mm 39 W/m2
14:06 9.4 °C 6.8 °C 1031.7 hPa WNW 8 km/h 12.9 km/h 84 % 0 mm 62 W/m2
14:11 9.3 °C 6.7 °C 1031.7 hPa WNW 11.3 km/h 16.1 km/h 84 % 0 mm 107 W/m2
14:16 9.3 °C 6.7 °C 1031.7 hPa WNW 9.7 km/h 14.5 km/h 84 % 0 mm 141 W/m2
14:21 9.4 °C 6.8 °C 1031.7 hPa WNW 11.3 km/h 17.7 km/h 84 % 0 mm 104 W/m2
14:26 9.6 °C 6.8 °C 1031.7 hPa WNW 8 km/h 12.9 km/h 83 % 0 mm 121 W/m2
14:31 9.7 °C 6.9 °C 1031.7 hPa WNW 9.7 km/h 16.1 km/h 83 % 0 mm 111 W/m2
14:36 9.7 °C 6.8 °C 1031.7 hPa WNW 14.5 km/h 24.1 km/h 82 % 0 mm 100 W/m2
14:41 9.6 °C 6.7 °C 1031.7 hPa WNW 16.1 km/h 22.5 km/h 82 % 0 mm 98 W/m2
14:46 9.4 °C 6.7 °C 1031.7 hPa WNW 12.9 km/h 20.9 km/h 83 % 0 mm 86 W/m2
14:51 9.2 °C 6.4 °C 1031.7 hPa West 9.7 km/h 14.5 km/h 83 % 0 mm 47 W/m2
14:56 9.1 °C 6.4 °C 1031.7 hPa West 11.3 km/h 16.1 km/h 83 % 0 mm 19 W/m2
15:01 8.9 °C 6.2 °C 1032.1 hPa West 8 km/h 14.5 km/h 83 % 0 mm 18 W/m2
15:06 8.7 °C 6.2 °C 1032.1 hPa West 8 km/h 12.9 km/h 84 % 0 mm 26 W/m2
15:11 8.6 °C 6.1 °C 1032.1 hPa West 8 km/h 12.9 km/h 84 % 0 mm 26 W/m2
15:16 8.4 °C 6 °C 1031.7 hPa West 8 km/h 14.5 km/h 85 % 0 mm 16 W/m2
15:21 8.3 °C 5.9 °C 1032.1 hPa WNW 11.3 km/h 16.1 km/h 85 % 0 mm 16 W/m2
15:26 8.3 °C 6.1 °C 1032.1 hPa WNW 11.3 km/h 16.1 km/h 86 % 0 mm 12 W/m2
15:31 8.2 °C 6 °C 1031.7 hPa WNW 12.9 km/h 16.1 km/h 86 % 0 mm 9 W/m2
15:37 8.1 °C 6.1 °C 1032.1 hPa WNW 11.3 km/h 17.7 km/h 87 % 0 mm 7 W/m2
15:42 8.1 °C 6.1 °C 1032.1 hPa WNW 14.5 km/h 20.9 km/h 87 % 0 mm 7 W/m2
15:47 8.1 °C 6.2 °C 1032.1 hPa WNW 11.3 km/h 16.1 km/h 88 % 0 mm 5 W/m2
15:49 8.1 °C 6.2 °C 1032.1 hPa NW 12.9 km/h 19.3 km/h 88 % 0 mm 5 W/m2
15:54 8.2 °C 6.3 °C 1032.1 hPa WNW 8 km/h 16.1 km/h 88 % 0 mm 0 W/m2
15:59 8.2 °C 6.3 °C 1032.1 hPa WNW 9.7 km/h 16.1 km/h 88 % 0 mm 0 W/m2
16:04 8.2 °C 6.3 °C 1032.1 hPa WNW 9.7 km/h 16.1 km/h 88 % 0 mm 0 W/m2
16:09 8.3 °C 6.4 °C 1032.1 hPa WNW 11.3 km/h 19.3 km/h 88 % 0 mm 0 W/m2
16:14 8.3 °C 6.4 °C 1032.1 hPa West 8 km/h 12.9 km/h 88 % 0 mm 0 W/m2
16:19 8.3 °C 6.4 °C 1032.1 hPa WNW 6.4 km/h 14.5 km/h 88 % 0 mm 0 W/m2
16:24 8.3 °C 6.4 °C 1032.4 hPa WNW 11.3 km/h 16.1 km/h 88 % 0 mm 0 W/m2
16:30 8.3 °C 6.4 °C 1032.4 hPa WNW 8 km/h 11.3 km/h 88 % 0 mm 0 W/m2
16:35 8.3 °C 6.4 °C 1032.4 hPa WNW 8 km/h 11.3 km/h 88 % 0 mm 0 W/m2
16:40 8.4 °C 6.5 °C 1032.4 hPa West 11.3 km/h 16.1 km/h 88 % 0 mm 0 W/m2
16:45 8.4 °C 6.3 °C 1032.4 hPa WNW 9.7 km/h 16.1 km/h 87 % 0 mm 0 W/m2
16:50 8.4 °C 6.3 °C 1032.4 hPa WNW 6.4 km/h 11.3 km/h 87 % 0 mm 0 W/m2
16:55 8.4 °C 6.3 °C 1032.7 hPa WNW 9.7 km/h 16.1 km/h 87 % 0 mm 0 W/m2
17:00 8.3 °C 6.3 °C 1032.7 hPa WNW 8 km/h 12.9 km/h 87 % 0 mm 0 W/m2
17:05 8.3 °C 6.3 °C 1032.7 hPa WNW 9.7 km/h 14.5 km/h 87 % 0 mm 0 W/m2
17:10 8.4 °C 6.3 °C 1032.7 hPa WNW 6.4 km/h 9.7 km/h 87 % 0 mm 0 W/m2
17:15 8.4 °C 6.3 °C 1032.7 hPa West 8 km/h 16.1 km/h 87 % 0 mm 0 W/m2
17:20 8.4 °C 6.3 °C 1032.7 hPa WNW 9.7 km/h 12.9 km/h 87 % 0 mm 0 W/m2
17:25 8.3 °C 6.3 °C 1032.7 hPa NW 8 km/h 12.9 km/h 87 % 0 mm 0 W/m2
17:30 8.4 °C 6.3 °C 1032.7 hPa WNW 8 km/h 14.5 km/h 87 % 0 mm 0 W/m2
17:35 8.4 °C 6.3 °C 1032.7 hPa WNW 4.8 km/h 11.3 km/h 87 % 0 mm 0 W/m2
17:40 8.4 °C 6.3 °C 1032.7 hPa Calm   3.2 km/h 87 % 0 mm 0 W/m2
17:45 8.4 °C 6.3 °C 1032.7 hPa WNW 9.7 km/h 17.7 km/h 87 % 0 mm 0 W/m2
17:50 8.4 °C 6.3 °C 1032.7 hPa NW 11.3 km/h 22.5 km/h 87 % 0 mm 0 W/m2
17:55 8.3 °C 6.3 °C 1032.7 hPa WNW 16.1 km/h 24.1 km/h 87 % 0 mm 0 W/m2
18:00 8.3 °C 6.3 °C 1032.7 hPa WNW 11.3 km/h 19.3 km/h 87 % 0 mm 0 W/m2
18:05 8.3 °C 6.3 °C 1033.1 hPa NW 9.7 km/h 17.7 km/h 87 % 0 mm 0 W/m2
18:10 8.2 °C 6.3 °C 1033.1 hPa WNW 11.3 km/h 17.7 km/h 88 % 0 mm 0 W/m2
18:15 8.2 °C 6.3 °C 1032.7 hPa WNW 12.9 km/h 19.3 km/h 88 % 0 mm 0 W/m2
18:20 8.2 °C 6.3 °C 1032.7 hPa WNW 8 km/h 17.7 km/h 88 % 0 mm 0 W/m2
18:25 8.2 °C 6.3 °C 1032.7 hPa WNW 8 km/h 12.9 km/h 88 % 0 mm 0 W/m2
18:30 8.2 °C 6.3 °C 1032.7 hPa WNW 6.4 km/h 12.9 km/h 88 % 0 mm 0 W/m2
18:35 8.1 °C 6.2 °C 1032.7 hPa WNW 4.8 km/h 11.3 km/h 88 % 0 mm 0 W/m2
18:40 8.1 °C 6.2 °C 1032.7 hPa WNW 9.7 km/h 12.9 km/h 88 % 0 mm 0 W/m2
18:45 8.1 °C 6.1 °C 1033.1 hPa NW 8 km/h 11.3 km/h 87 % 0 mm 0 W/m2
18:50 8.1 °C 6.1 °C 1033.1 hPa NW 6.4 km/h 12.9 km/h 87 % 0 mm 0 W/m2
18:55 8.1 °C 6.1 °C 1033.1 hPa WNW 3.2 km/h 12.9 km/h 87 % 0 mm 0 W/m2
19:00 8.1 °C 6.1 °C 1033.1 hPa WNW 8 km/h 14.5 km/h 87 % 0 mm 0 W/m2
19:05 8.1 °C 5.9 °C 1033.1 hPa West 4.8 km/h 11.3 km/h 86 % 0 mm 0 W/m2
19:10 8.1 °C 5.9 °C 1033.1 hPa WSW 4.8 km/h 9.7 km/h 86 % 0 mm 0 W/m2
19:15 8.1 °C 5.9 °C 1033.1 hPa WNW 6.4 km/h 14.5 km/h 86 % 0 mm 0 W/m2
19:20 8.1 °C 5.9 °C 1033.1 hPa WNW 8 km/h 12.9 km/h 86 % 0 mm 0 W/m2
19:25 8.1 °C 5.9 °C 1033.1 hPa WNW 3.2 km/h 8 km/h 86 % 0 mm 0 W/m2
19:26 8.1 °C 5.9 °C 1033.1 hPa WNW 1.6 km/h 8 km/h 86 % 0 mm 0 W/m2
19:31 8.1 °C 5.9 °C 1033.1 hPa West 8 km/h 16.1 km/h 86 % 0 mm 0 W/m2
19:36 8.2 °C 6 °C 1033.1 hPa WNW 9.7 km/h 16.1 km/h 86 % 0 mm 0 W/m2
19:41 8.2 °C 6 °C 1033.1 hPa WNW 11.3 km/h 16.1 km/h 86 % 0 mm 0 W/m2
19:46 8.2 °C 6 °C 1033.1 hPa WNW 11.3 km/h 20.9 km/h 86 % 0 mm 0 W/m2
19:51 8.2 °C 6 °C 1033.1 hPa WNW 8 km/h 12.9 km/h 86 % 0 mm 0 W/m2
19:56 8.2 °C 6 °C 1033.4 hPa WNW 9.7 km/h 16.1 km/h 86 % 0 mm 0 W/m2
20:01 8.2 °C 6.2 °C 1033.1 hPa WNW 11.3 km/h 20.9 km/h 87 % 0 mm 0 W/m2
20:06 8.2 °C 6.2 °C 1033.1 hPa WNW 8 km/h 12.9 km/h 87 % 0 mm 0 W/m2
20:11 8.2 °C 6.2 °C 1033.4 hPa WNW 9.7 km/h 16.1 km/h 87 % 0 mm 0 W/m2
20:16 8.2 °C 6.2 °C 1033.4 hPa WNW 8 km/h 16.1 km/h 87 % 0 mm 0 W/m2
20:21 8.2 °C 6.2 °C 1033.4 hPa West 9.7 km/h 12.9 km/h 87 % 0 mm 0 W/m2
20:26 8.2 °C 6.2 °C 1033.1 hPa WNW 11.3 km/h 16.1 km/h 87 % 0 mm 0 W/m2
20:31 8.2 °C 6.2 °C 1033.4 hPa WNW 12.9 km/h 24.1 km/h 87 % 0 mm 0 W/m2
20:37 8.2 °C 6.2 °C 1033.1 hPa WNW 12.9 km/h 19.3 km/h 87 % 0 mm 0 W/m2
20:42 8.2 °C 6.2 °C 1033.1 hPa WNW 12.9 km/h 20.9 km/h 87 % 0 mm 0 W/m2
20:47 8.2 °C 6.2 °C 1033.1 hPa West 8 km/h 12.9 km/h 87 % 0 mm 0 W/m2
20:52 8.2 °C 6.2 °C 1033.4 hPa WNW 12.9 km/h 24.1 km/h 87 % 0 mm 0 W/m2
20:57 8.2 °C 6.2 °C 1033.4 hPa West 11.3 km/h 14.5 km/h 87 % 0 mm 0 W/m2
21:02 8.2 °C 6.2 °C 1033.4 hPa West 9.7 km/h 14.5 km/h 87 % 0 mm 0 W/m2
21:07 8.2 °C 6.2 °C 1033.4 hPa WNW 8 km/h 12.9 km/h 87 % 0 mm 0 W/m2
21:12 8.2 °C 6.2 °C 1033.4 hPa WNW 12.9 km/h 19.3 km/h 87 % 0 mm 0 W/m2
21:17 8.2 °C 6.2 °C 1033.4 hPa WNW 11.3 km/h 17.7 km/h 87 % 0 mm 0 W/m2
21:22 8.2 °C 6.2 °C 1033.4 hPa WNW 6.4 km/h 12.9 km/h 87 % 0 mm 0 W/m2
21:27 8.2 °C 6.2 °C 1033.4 hPa WNW 9.7 km/h 16.1 km/h 87 % 0 mm 0 W/m2
21:32 8.1 °C 6.1 °C 1033.4 hPa WNW 12.9 km/h 19.3 km/h 87 % 0 mm 0 W/m2
21:37 8.2 °C 6.2 °C 1033.4 hPa WNW 11.3 km/h 19.3 km/h 87 % 0 mm 0 W/m2
21:42 8.1 °C 6.1 °C 1033.4 hPa WNW 11.3 km/h 17.7 km/h 87 % 0 mm 0 W/m2
21:47 8.1 °C 6.1 °C 1033.4 hPa West 11.3 km/h 14.5 km/h 87 % 0 mm 0 W/m2
21:49 8.1 °C 6.1 °C 1033.4 hPa WNW 6.4 km/h 12.9 km/h 87 % 0 mm 0 W/m2
21:54 8.1 °C 6.1 °C 1033.4 hPa WNW 9.7 km/h 16.1 km/h 87 % 0 mm 0 W/m2
21:59 8.1 °C 6.1 °C 1033.4 hPa WNW 8 km/h 14.5 km/h 87 % 0 mm 0 W/m2
22:04 8.1 °C 6.1 °C 1033.4 hPa West 9.7 km/h 14.5 km/h 87 % 0 mm 0 W/m2
22:09 8.1 °C 6.1 °C 1033.4 hPa West 12.9 km/h 19.3 km/h 87 % 0 mm 0 W/m2
22:14 8.1 °C 5.9 °C 1033.4 hPa West 11.3 km/h 16.1 km/h 86 % 0 mm 0 W/m2
22:19 8.1 °C 5.9 °C 1033.4 hPa WNW 14.5 km/h 19.3 km/h 86 % 0 mm 0 W/m2
22:24 8.1 °C 5.9 °C 1033.4 hPa WNW 12.9 km/h 19.3 km/h 86 % 0 mm 0 W/m2
22:29 8.2 °C 6 °C 1033.4 hPa WNW 14.5 km/h 20.9 km/h 86 % 0 mm 0 W/m2
22:34 8.2 °C 6 °C 1033.4 hPa WNW 12.9 km/h 17.7 km/h 86 % 0 mm 0 W/m2
22:39 8.2 °C 5.8 °C 1033.4 hPa West 16.1 km/h 20.9 km/h 85 % 0 mm 0 W/m2
22:44 8.2 °C 5.8 °C 1033.4 hPa WNW 12.9 km/h 16.1 km/h 85 % 0 mm 0 W/m2
22:49 8.2 °C 5.8 °C 1033.4 hPa WNW 12.9 km/h 19.3 km/h 85 % 0 mm 0 W/m2
22:54 8.2 °C 5.8 °C 1033.4 hPa WNW 12.9 km/h 16.1 km/h 85 % 0 mm 0 W/m2
22:59 8.2 °C 5.8 °C 1033.4 hPa WNW 9.7 km/h 14.5 km/h 85 % 0 mm 0 W/m2
23:04 8.2 °C 5.8 °C 1033.4 hPa West 9.7 km/h 14.5 km/h 85 % 0 mm 0 W/m2
23:09 8.2 °C 5.8 °C 1033.4 hPa West 9.7 km/h 14.5 km/h 85 % 0 mm 0 W/m2
23:14 8.2 °C 5.8 °C 1033.4 hPa West 8 km/h 12.9 km/h 85 % 0 mm 0 W/m2
23:19 8.2 °C 5.8 °C 1033.4 hPa WNW 9.7 km/h 12.9 km/h 85 % 0 mm 0 W/m2
23:24 8.2 °C 5.8 °C 1033.4 hPa West 9.7 km/h 12.9 km/h 85 % 0 mm 0 W/m2
23:29 8.2 °C 5.8 °C 1033.4 hPa West 8 km/h 12.9 km/h 85 % 0 mm 0 W/m2
23:34 8.2 °C 5.8 °C 1033.4 hPa West 9.7 km/h 14.5 km/h 85 % 0 mm 0 W/m2
23:39 8.2 °C 5.8 °C 1033.4 hPa West 9.7 km/h 12.9 km/h 85 % 0 mm 0 W/m2
23:44 8.2 °C 5.8 °C 1033.4 hPa West 11.3 km/h 16.1 km/h 85 % 0 mm 0 W/m2
23:49 8.2 °C 5.8 °C 1033.4 hPa West 9.7 km/h 12.9 km/h 85 % 0 mm 0 W/m2
23:54 8.2 °C 5.8 °C 1033.4 hPa West 9.7 km/h 12.9 km/h 85 % 0 mm 0 W/m2
Delerius-Weather
Compliments of Weather Underground - 2.25 mb

Data updates at regular intervals.